sensor_id;sensor_type;location;lat;lon;timestamp;temperature;humidity
66401;HTU21D;53211;45.040;38.788;2023-01-19T00:02:22;6.27;83.52
66401;HTU21D;53211;45.040;38.788;2023-01-19T00:04:48;6.27;83.49
66401;HTU21D;53211;45.040;38.788;2023-01-19T00:07:15;6.26;83.40
66401;HTU21D;53211;45.040;38.788;2023-01-19T00:09:40;6.25;83.46
66401;HTU21D;53211;45.040;38.788;2023-01-19T00:12:06;6.26;83.48
66401;HTU21D;53211;45.040;38.788;2023-01-19T00:14:32;6.29;83.51
66401;HTU21D;53211;45.040;38.788;2023-01-19T00:16:58;6.31;83.47
66401;HTU21D;53211;45.040;38.788;2023-01-19T00:19:27;6.36;83.46
66401;HTU21D;53211;45.040;38.788;2023-01-19T00:21:53;6.39;83.39
66401;HTU21D;53211;45.040;38.788;2023-01-19T00:24:20;6.40;83.32
66401;HTU21D;53211;45.040;38.788;2023-01-19T00:26:46;6.43;83.28
66401;HTU21D;53211;45.040;38.788;2023-01-19T00:29:12;6.44;83.16
66401;HTU21D;53211;45.040;38.788;2023-01-19T00:31:40;6.46;83.19
66401;HTU21D;53211;45.040;38.788;2023-01-19T00:34:06;6.48;83.13
66401;HTU21D;53211;45.040;38.788;2023-01-19T00:36:32;6.44;82.93
66401;HTU21D;53211;45.040;38.788;2023-01-19T00:38:59;6.40;82.92
66401;HTU21D;53211;45.040;38.788;2023-01-19T00:41:25;6.39;82.90
66401;HTU21D;53211;45.040;38.788;2023-01-19T00:44:11;6.35;82.74
66401;HTU21D;53211;45.040;38.788;2023-01-19T00:46:38;6.30;82.82
66401;HTU21D;53211;45.040;38.788;2023-01-19T00:49:04;6.26;82.75
66401;HTU21D;53211;45.040;38.788;2023-01-19T00:51:30;6.17;82.73
66401;HTU21D;53211;45.040;38.788;2023-01-19T00:53:56;6.15;82.82
66401;HTU21D;53211;45.040;38.788;2023-01-19T00:56:24;6.14;82.86
66401;HTU21D;53211;45.040;38.788;2023-01-19T00:58:50;6.15;82.91
66401;HTU21D;53211;45.040;38.788;2023-01-19T01:01:16;6.12;82.65
66401;HTU21D;53211;45.040;38.788;2023-01-19T01:03:42;6.05;82.57
66401;HTU21D;53211;45.040;38.788;2023-01-19T01:06:07;5.95;82.58
66401;HTU21D;53211;45.040;38.788;2023-01-19T01:08:34;5.92;82.73
66401;HTU21D;53211;45.040;38.788;2023-01-19T01:11:00;5.90;82.78
66401;HTU21D;53211;45.040;38.788;2023-01-19T01:13:26;5.84;82.68
66401;HTU21D;53211;45.040;38.788;2023-01-19T01:15:53;5.77;82.71
66401;HTU21D;53211;45.040;38.788;2023-01-19T01:18:20;5.74;82.87
66401;HTU21D;53211;45.040;38.788;2023-01-19T01:20:46;5.74;82.83
66401;HTU21D;53211;45.040;38.788;2023-01-19T01:23:13;5.69;82.92
66401;HTU21D;53211;45.040;38.788;2023-01-19T01:25:39;5.68;82.87
66401;HTU21D;53211;45.040;38.788;2023-01-19T01:28:06;5.67;82.93
66401;HTU21D;53211;45.040;38.788;2023-01-19T01:30:36;5.65;82.78
66401;HTU21D;53211;45.040;38.788;2023-01-19T01:33:06;5.65;82.87
66401;HTU21D;53211;45.040;38.788;2023-01-19T01:35:32;5.67;83.00
66401;HTU21D;53211;45.040;38.788;2023-01-19T01:37:59;5.70;83.04
66401;HTU21D;53211;45.040;38.788;2023-01-19T01:40:25;5.74;82.85
66401;HTU21D;53211;45.040;38.788;2023-01-19T01:42:52;5.74;82.97
66401;HTU21D;53211;45.040;38.788;2023-01-19T01:45:34;5.77;83.11
66401;HTU21D;53211;45.040;38.788;2023-01-19T01:48:07;5.83;83.14
66401;HTU21D;53211;45.040;38.788;2023-01-19T01:50:40;5.85;82.94
66401;HTU21D;53211;45.040;38.788;2023-01-19T01:53:28;5.85;83.03
66401;HTU21D;53211;45.040;38.788;2023-01-19T01:55:54;5.87;82.88
66401;HTU21D;53211;45.040;38.788;2023-01-19T01:58:21;5.86;82.94
66401;HTU21D;53211;45.040;38.788;2023-01-19T02:00:47;5.87;82.93
66401;HTU21D;53211;45.040;38.788;2023-01-19T02:03:32;5.84;82.78
66401;HTU21D;53211;45.040;38.788;2023-01-19T02:05:59;5.80;82.80
66401;HTU21D;53211;45.040;38.788;2023-01-19T02:09:03;5.76;82.83
66401;HTU21D;53211;45.040;38.788;2023-01-19T02:11:47;5.71;82.79
66401;HTU21D;53211;45.040;38.788;2023-01-19T02:14:33;5.68;82.83
66401;HTU21D;53211;45.040;38.788;2023-01-19T02:17:04;5.65;82.87
66401;HTU21D;53211;45.040;38.788;2023-01-19T02:19:39;5.62;82.86
66401;HTU21D;53211;45.040;38.788;2023-01-19T02:22:21;5.61;82.87
66401;HTU21D;53211;45.040;38.788;2023-01-19T02:24:49;5.57;82.91
66401;HTU21D;53211;45.040;38.788;2023-01-19T02:27:16;5.56;82.90
66401;HTU21D;53211;45.040;38.788;2023-01-19T02:29:42;5.53;82.91
66401;HTU21D;53211;45.040;38.788;2023-01-19T02:32:09;5.52;82.85
66401;HTU21D;53211;45.040;38.788;2023-01-19T02:34:35;5.52;83.06
66401;HTU21D;53211;45.040;38.788;2023-01-19T02:37:11;5.57;83.17
66401;HTU21D;53211;45.040;38.788;2023-01-19T02:39:56;5.64;83.20
66401;HTU21D;53211;45.040;38.788;2023-01-19T02:42:51;5.67;82.97
66401;HTU21D;53211;45.040;38.788;2023-01-19T02:45:21;5.64;82.94
66401;HTU21D;53211;45.040;38.788;2023-01-19T02:47:49;5.62;82.95
66401;HTU21D;53211;45.040;38.788;2023-01-19T02:50:41;5.63;83.13
66401;HTU21D;53211;45.040;38.788;2023-01-19T02:56:27;5.68;83.24
66401;HTU21D;53211;45.040;38.788;2023-01-19T03:10:16;5.89;83.11
66401;HTU21D;53211;45.040;38.788;2023-01-19T03:15:25;5.92;82.91
66401;HTU21D;53211;45.040;38.788;2023-01-19T03:17:52;5.92;82.93
66401;HTU21D;53211;45.040;38.788;2023-01-19T03:20:23;5.91;82.91
66401;HTU21D;53211;45.040;38.788;2023-01-19T03:22:53;5.87;82.83
66401;HTU21D;53211;45.040;38.788;2023-01-19T03:25:21;5.85;82.69
66401;HTU21D;53211;45.040;38.788;2023-01-19T03:27:49;5.81;82.64
66401;HTU21D;53211;45.040;38.788;2023-01-19T03:30:26;5.75;82.66
66401;HTU21D;53211;45.040;38.788;2023-01-19T03:33:07;5.72;82.71
66401;HTU21D;53211;45.040;38.788;2023-01-19T03:35:40;5.67;82.63
66401;HTU21D;53211;45.040;38.788;2023-01-19T03:38:12;5.63;82.58
66401;HTU21D;53211;45.040;38.788;2023-01-19T03:40:39;5.56;82.49
66401;HTU21D;53211;45.040;38.788;2023-01-19T03:43:07;5.50;82.42
66401;HTU21D;53211;45.040;38.788;2023-01-19T03:45:36;5.41;82.46
66401;HTU21D;53211;45.040;38.788;2023-01-19T03:48:04;5.34;82.45
66401;HTU21D;53211;45.040;38.788;2023-01-19T03:50:34;5.26;82.55
66401;HTU21D;53211;45.040;38.788;2023-01-19T03:53:11;5.20;82.52
66401;HTU21D;53211;45.040;38.788;2023-01-19T03:55:39;5.13;82.42
66401;HTU21D;53211;45.040;38.788;2023-01-19T03:58:05;5.07;82.49
66401;HTU21D;53211;45.040;38.788;2023-01-19T04:00:32;4.98;82.04
66401;HTU21D;53211;45.040;38.788;2023-01-19T04:02:58;4.88;82.35
66401;HTU21D;53211;45.040;38.788;2023-01-19T04:05:24;4.75;82.33
66401;HTU21D;53211;45.040;38.788;2023-01-19T04:07:51;4.61;82.41
66401;HTU21D;53211;45.040;38.788;2023-01-19T04:10:18;4.51;82.39
66401;HTU21D;53211;45.040;38.788;2023-01-19T04:12:44;4.44;82.46
66401;HTU21D;53211;45.040;38.788;2023-01-19T04:15:10;4.35;82.46
66401;HTU21D;53211;45.040;38.788;2023-01-19T04:17:37;4.26;82.39
66401;HTU21D;53211;45.040;38.788;2023-01-19T04:20:04;4.16;82.46
66401;HTU21D;53211;45.040;38.788;2023-01-19T04:22:31;4.08;82.51
66401;HTU21D;53211;45.040;38.788;2023-01-19T04:24:57;4.00;82.57
66401;HTU21D;53211;45.040;38.788;2023-01-19T04:27:23;3.91;82.62
66401;HTU21D;53211;45.040;38.788;2023-01-19T04:29:51;3.80;82.72
66401;HTU21D;53211;45.040;38.788;2023-01-19T04:32:17;3.72;82.80
66401;HTU21D;53211;45.040;38.788;2023-01-19T04:34:43;3.67;82.74
66401;HTU21D;53211;45.040;38.788;2023-01-19T04:37:09;3.60;82.74
66401;HTU21D;53211;45.040;38.788;2023-01-19T04:39:35;3.52;82.61
66401;HTU21D;53211;45.040;38.788;2023-01-19T04:42:01;3.39;82.74
66401;HTU21D;53211;45.040;38.788;2023-01-19T04:44:27;3.33;82.94
66401;HTU21D;53211;45.040;38.788;2023-01-19T04:46:53;3.30;83.03
66401;HTU21D;53211;45.040;38.788;2023-01-19T04:49:19;3.26;83.00
66401;HTU21D;53211;45.040;38.788;2023-01-19T04:51:46;3.19;82.91
66401;HTU21D;53211;45.040;38.788;2023-01-19T04:54:11;3.10;82.88
66401;HTU21D;53211;45.040;38.788;2023-01-19T04:56:37;3.05;82.98
66401;HTU21D;53211;45.040;38.788;2023-01-19T04:59:05;3.02;83.10
66401;HTU21D;53211;45.040;38.788;2023-01-19T13:45:35;13.64;75.91
66401;HTU21D;53211;45.040;38.788;2023-01-19T13:48:07;13.44;75.86
66401;HTU21D;53211;45.040;38.788;2023-01-19T13:50:37;13.23;75.75
66401;HTU21D;53211;45.040;38.788;2023-01-19T13:53:22;12.99;75.78
66401;HTU21D;53211;45.040;38.788;2023-01-19T13:56:28;12.78;76.00
66401;HTU21D;53211;45.040;38.788;2023-01-19T14:01:29;12.32;76.09
66401;HTU21D;53211;45.040;38.788;2023-01-19T14:03:58;12.14;76.08
66401;HTU21D;53211;45.040;38.788;2023-01-19T14:06:36;11.91;76.18
66401;HTU21D;53211;45.040;38.788;2023-01-19T14:09:14;11.72;76.40
66401;HTU21D;53211;45.040;38.788;2023-01-19T14:11:42;11.54;76.32
66401;HTU21D;53211;45.040;38.788;2023-01-19T14:14:26;11.31;76.29
66401;HTU21D;53211;45.040;38.788;2023-01-19T14:16:52;11.11;76.50
66401;HTU21D;53211;45.040;38.788;2023-01-19T14:19:18;10.90;76.30
66401;HTU21D;53211;45.040;38.788;2023-01-19T14:21:44;10.70;76.34
66401;HTU21D;53211;45.040;38.788;2023-01-19T14:24:18;10.49;76.42
66401;HTU21D;53211;45.040;38.788;2023-01-19T14:26:49;10.33;76.71
66401;HTU21D;53211;45.040;38.788;2023-01-19T14:29:33;10.16;76.64
66401;HTU21D;53211;45.040;38.788;2023-01-19T14:37:25;9.74;77.09
66401;HTU21D;53211;45.040;38.788;2023-01-19T14:43:01;9.41;76.89
66401;HTU21D;53211;45.040;38.788;2023-01-19T14:45:37;9.24;77.12
66401;HTU21D;53211;45.040;38.788;2023-01-19T14:48:12;9.11;76.98
66401;HTU21D;53211;45.040;38.788;2023-01-19T14:50:40;8.94;76.91
66401;HTU21D;53211;45.040;38.788;2023-01-19T14:53:17;8.76;76.88
66401;HTU21D;53211;45.040;38.788;2023-01-19T14:55:51;8.61;77.45
66401;HTU21D;53211;45.040;38.788;2023-01-19T14:58:22;8.48;77.46
66401;HTU21D;53211;45.040;38.788;2023-01-19T15:00:49;8.35;77.30
66401;HTU21D;53211;45.040;38.788;2023-01-19T15:03:15;8.20;77.57
66401;HTU21D;53211;45.040;38.788;2023-01-19T15:05:45;8.09;77.56
66401;HTU21D;53211;45.040;38.788;2023-01-19T15:08:32;7.96;77.63
66401;HTU21D;53211;45.040;38.788;2023-01-19T15:13:48;7.78;77.90
66401;HTU21D;53211;45.040;38.788;2023-01-19T15:16:14;7.72;77.90
66401;HTU21D;53211;45.040;38.788;2023-01-19T15:18:40;7.65;77.87
66401;HTU21D;53211;45.040;38.788;2023-01-19T15:21:13;7.58;77.76
66401;HTU21D;53211;45.040;38.788;2023-01-19T15:23:40;7.52;77.74
66401;HTU21D;53211;45.040;38.788;2023-01-19T15:26:06;7.45;77.90
66401;HTU21D;53211;45.040;38.788;2023-01-19T15:28:32;7.35;77.74
66401;HTU21D;53211;45.040;38.788;2023-01-19T15:30:59;7.24;77.68
66401;HTU21D;53211;45.040;38.788;2023-01-19T15:33:27;7.11;77.93
66401;HTU21D;53211;45.040;38.788;2023-01-19T15:35:55;7.01;78.08
66401;HTU21D;53211;45.040;38.788;2023-01-19T15:38:21;6.90;78.19
66401;HTU21D;53211;45.040;38.788;2023-01-19T15:40:48;6.84;78.21
66401;HTU21D;53211;45.040;38.788;2023-01-19T15:43:14;6.73;78.25
66401;HTU21D;53211;45.040;38.788;2023-01-19T15:45:48;6.68;78.45
66401;HTU21D;53211;45.040;38.788;2023-01-19T15:48:15;6.68;78.60
66401;HTU21D;53211;45.040;38.788;2023-01-19T15:50:43;6.69;78.63
66401;HTU21D;53211;45.040;38.788;2023-01-19T15:53:13;6.66;78.43
66401;HTU21D;53211;45.040;38.788;2023-01-19T15:55:39;6.57;78.37
66401;HTU21D;53211;45.040;38.788;2023-01-19T15:58:07;6.46;78.43
66401;HTU21D;53211;45.040;38.788;2023-01-19T16:00:33;6.41;78.79
66401;HTU21D;53211;45.040;38.788;2023-01-19T16:03:00;6.44;78.96
66401;HTU21D;53211;45.040;38.788;2023-01-19T16:05:27;6.42;79.09
66401;HTU21D;53211;45.040;38.788;2023-01-19T16:07:53;6.44;79.28
66401;HTU21D;53211;45.040;38.788;2023-01-19T16:10:19;6.52;79.36
66401;HTU21D;53211;45.040;38.788;2023-01-19T16:12:46;6.57;79.59
66401;HTU21D;53211;45.040;38.788;2023-01-19T16:15:15;6.73;79.89
66401;HTU21D;53211;45.040;38.788;2023-01-19T16:17:42;6.91;79.69
66401;HTU21D;53211;45.040;38.788;2023-01-19T16:20:10;7.03;79.72
66401;HTU21D;53211;45.040;38.788;2023-01-19T16:22:36;7.19;79.60
66401;HTU21D;53211;45.040;38.788;2023-01-19T16:25:03;7.38;79.75
66401;HTU21D;53211;45.040;38.788;2023-01-19T16:27:29;7.53;79.80
66401;HTU21D;53211;45.040;38.788;2023-01-19T16:29:55;7.69;79.72
66401;HTU21D;53211;45.040;38.788;2023-01-19T16:32:22;7.88;79.90
66401;HTU21D;53211;45.040;38.788;2023-01-19T16:34:47;8.07;79.99
66401;HTU21D;53211;45.040;38.788;2023-01-19T16:37:13;8.30;80.09
66401;HTU21D;53211;45.040;38.788;2023-01-19T16:39:39;8.50;79.53
66401;HTU21D;53211;45.040;38.788;2023-01-19T16:42:05;8.64;79.54
66401;HTU21D;53211;45.040;38.788;2023-01-19T16:44:31;8.81;79.46
66401;HTU21D;53211;45.040;38.788;2023-01-19T16:46:57;8.92;78.92
66401;HTU21D;53211;45.040;38.788;2023-01-19T16:49:31;8.97;78.74
66401;HTU21D;53211;45.040;38.788;2023-01-19T16:51:57;8.98;78.62
66401;HTU21D;53211;45.040;38.788;2023-01-19T16:54:24;9.02;78.73
66401;HTU21D;53211;45.040;38.788;2023-01-19T16:56:51;9.08;78.88
66401;HTU21D;53211;45.040;38.788;2023-01-19T16:59:17;9.11;78.67
66401;HTU21D;53211;45.040;38.788;2023-01-19T17:01:44;9.14;78.68
66401;HTU21D;53211;45.040;38.788;2023-01-19T17:04:11;9.18;78.71
66401;HTU21D;53211;45.040;38.788;2023-01-19T17:06:37;9.19;78.53
66401;HTU21D;53211;45.040;38.788;2023-01-19T17:09:04;9.16;78.49
66401;HTU21D;53211;45.040;38.788;2023-01-19T17:11:31;9.17;78.56
66401;HTU21D;53211;45.040;38.788;2023-01-19T17:14:03;9.21;78.50
66401;HTU21D;53211;45.040;38.788;2023-01-19T17:16:30;9.19;78.30
66401;HTU21D;53211;45.040;38.788;2023-01-19T17:18:59;9.11;78.08
66401;HTU21D;53211;45.040;38.788;2023-01-19T17:21:25;9.01;78.13
66401;HTU21D;53211;45.040;38.788;2023-01-19T17:23:53;8.90;78.22
66401;HTU21D;53211;45.040;38.788;2023-01-19T17:26:20;8.85;78.24
66401;HTU21D;53211;45.040;38.788;2023-01-19T17:28:46;8.78;78.32
66401;HTU21D;53211;45.040;38.788;2023-01-19T17:31:19;8.73;78.29
66401;HTU21D;53211;45.040;38.788;2023-01-19T17:33:49;8.63;78.34
66401;HTU21D;53211;45.040;38.788;2023-01-19T17:36:20;8.53;77.85
66401;HTU21D;53211;45.040;38.788;2023-01-19T17:38:51;8.44;77.99
66401;HTU21D;53211;45.040;38.788;2023-01-19T17:41:22;8.32;77.92
66401;HTU21D;53211;45.040;38.788;2023-01-19T17:43:49;8.16;77.72
66401;HTU21D;53211;45.040;38.788;2023-01-19T17:46:16;8.01;77.97
66401;HTU21D;53211;45.040;38.788;2023-01-19T17:48:42;7.91;77.98
66401;HTU21D;53211;45.040;38.788;2023-01-19T17:51:10;7.78;77.87
66401;HTU21D;53211;45.040;38.788;2023-01-19T17:53:38;7.61;77.82
66401;HTU21D;53211;45.040;38.788;2023-01-19T17:56:09;7.48;77.98
66401;HTU21D;53211;45.040;38.788;2023-01-19T17:58:36;7.35;77.93
66401;HTU21D;53211;45.040;38.788;2023-01-19T18:03:39;7.08;78.08
66401;HTU21D;53211;45.040;38.788;2023-01-19T18:06:05;6.93;78.01
66401;HTU21D;53211;45.040;38.788;2023-01-19T18:08:32;6.78;78.00
66401;HTU21D;53211;45.040;38.788;2023-01-19T18:11:00;6.59;78.00
66401;HTU21D;53211;45.040;38.788;2023-01-19T18:13:27;6.44;77.99
66401;HTU21D;53211;45.040;38.788;2023-01-19T18:16:15;6.29;78.29
66401;HTU21D;53211;45.040;38.788;2023-01-19T18:18:44;6.19;78.06
66401;HTU21D;53211;45.040;38.788;2023-01-19T18:21:12;6.05;78.21
66401;HTU21D;53211;45.040;38.788;2023-01-19T18:23:38;5.98;78.35
66401;HTU21D;53211;45.040;38.788;2023-01-19T18:26:10;5.89;78.27
66401;HTU21D;53211;45.040;38.788;2023-01-19T18:28:36;5.75;78.15
66401;HTU21D;53211;45.040;38.788;2023-01-19T18:31:07;5.60;78.27
66401;HTU21D;53211;45.040;38.788;2023-01-19T18:33:34;5.49;78.20
66401;HTU21D;53211;45.040;38.788;2023-01-19T18:36:00;5.37;78.27
66401;HTU21D;53211;45.040;38.788;2023-01-19T18:38:26;5.27;78.27
66401;HTU21D;53211;45.040;38.788;2023-01-19T18:41:00;5.15;78.43
66401;HTU21D;53211;45.040;38.788;2023-01-19T18:43:26;5.05;78.47
66401;HTU21D;53211;45.040;38.788;2023-01-19T18:45:52;4.95;78.63
66401;HTU21D;53211;45.040;38.788;2023-01-19T18:48:18;4.90;78.65
66401;HTU21D;53211;45.040;38.788;2023-01-19T18:50:44;4.82;78.61
66401;HTU21D;53211;45.040;38.788;2023-01-19T18:53:10;4.72;78.60
66401;HTU21D;53211;45.040;38.788;2023-01-19T19:08:25;4.37;78.85
66401;HTU21D;53211;45.040;38.788;2023-01-19T19:10:51;4.26;78.76
66401;HTU21D;53211;45.040;38.788;2023-01-19T19:13:17;4.15;78.76
66401;HTU21D;53211;45.040;38.788;2023-01-19T19:15:46;4.05;78.98
66401;HTU21D;53211;45.040;38.788;2023-01-19T19:18:12;3.99;79.02
66401;HTU21D;53211;45.040;38.788;2023-01-19T19:20:39;3.88;78.96
66401;HTU21D;53211;45.040;38.788;2023-01-19T19:23:12;3.80;79.09
66401;HTU21D;53211;45.040;38.788;2023-01-19T19:25:38;3.74;79.03
66401;HTU21D;53211;45.040;38.788;2023-01-19T19:28:05;3.63;78.99
66401;HTU21D;53211;45.040;38.788;2023-01-19T19:30:31;3.52;79.01
66401;HTU21D;53211;45.040;38.788;2023-01-19T19:32:59;3.42;79.13
66401;HTU21D;53211;45.040;38.788;2023-01-19T19:35:25;3.31;79.17
66401;HTU21D;53211;45.040;38.788;2023-01-19T19:37:51;3.19;79.23
66401;HTU21D;53211;45.040;38.788;2023-01-19T19:40:25;3.11;79.25
66401;HTU21D;53211;45.040;38.788;2023-01-19T19:42:52;3.01;79.24
66401;HTU21D;53211;45.040;38.788;2023-01-19T19:45:18;2.95;79.47
66401;HTU21D;53211;45.040;38.788;2023-01-19T19:47:46;2.95;79.72
66401;HTU21D;53211;45.040;38.788;2023-01-19T19:50:12;2.95;79.69
66401;HTU21D;53211;45.040;38.788;2023-01-19T19:52:39;2.97;79.68
66401;HTU21D;53211;45.040;38.788;2023-01-19T19:55:07;2.95;79.47
66401;HTU21D;53211;45.040;38.788;2023-01-19T19:57:33;2.90;79.49
66401;HTU21D;53211;45.040;38.788;2023-01-19T19:59:59;2.87;79.51
66401;HTU21D;53211;45.040;38.788;2023-01-19T20:02:27;2.88;79.55
66401;HTU21D;53211;45.040;38.788;2023-01-19T20:04:53;2.87;79.51
66401;HTU21D;53211;45.040;38.788;2023-01-19T20:07:19;2.83;79.31
66401;HTU21D;53211;45.040;38.788;2023-01-19T20:09:45;2.75;79.36
66401;HTU21D;53211;45.040;38.788;2023-01-19T20:12:11;2.71;79.52
66401;HTU21D;53211;45.040;38.788;2023-01-19T20:14:37;2.70;79.56
66401;HTU21D;53211;45.040;38.788;2023-01-19T20:17:02;2.68;79.53
66401;HTU21D;53211;45.040;38.788;2023-01-19T20:19:30;2.66;79.54
66401;HTU21D;53211;45.040;38.788;2023-01-19T20:21:56;2.64;79.54
66401;HTU21D;53211;45.040;38.788;2023-01-19T20:24:22;2.62;79.56
66401;HTU21D;53211;45.040;38.788;2023-01-19T20:26:50;2.60;79.58
66401;HTU21D;53211;45.040;38.788;2023-01-19T20:29:18;2.59;79.62
66401;HTU21D;53211;45.040;38.788;2023-01-19T20:31:48;2.56;79.67
66401;HTU21D;53211;45.040;38.788;2023-01-19T20:34:16;2.53;79.53
66401;HTU21D;53211;45.040;38.788;2023-01-19T20:36:43;2.41;79.49
66401;HTU21D;53211;45.040;38.788;2023-01-19T20:39:15;2.31;79.51
66401;HTU21D;53211;45.040;38.788;2023-01-19T20:41:41;2.21;79.66
66401;HTU21D;53211;45.040;38.788;2023-01-19T20:44:15;2.11;79.75
66401;HTU21D;53211;45.040;38.788;2023-01-19T20:46:44;2.02;79.75
66401;HTU21D;53211;45.040;38.788;2023-01-19T20:49:10;1.94;79.87
66401;HTU21D;53211;45.040;38.788;2023-01-19T20:51:37;1.90;80.07
66401;HTU21D;53211;45.040;38.788;2023-01-19T20:54:09;1.85;80.50
66401;HTU21D;53211;45.040;38.788;2023-01-19T20:56:37;1.83;80.30
66401;HTU21D;53211;45.040;38.788;2023-01-19T20:59:06;1.79;80.27
66401;HTU21D;53211;45.040;38.788;2023-01-19T21:01:33;1.73;80.49
66401;HTU21D;53211;45.040;38.788;2023-01-19T21:03:59;1.75;80.47
66401;HTU21D;53211;45.040;38.788;2023-01-19T21:06:25;1.78;80.94
66401;HTU21D;53211;45.040;38.788;2023-01-19T21:08:51;1.90;81.26
66401;HTU21D;53211;45.040;38.788;2023-01-19T21:11:18;1.98;80.88
66401;HTU21D;53211;45.040;38.788;2023-01-19T21:13:49;1.99;80.77
66401;HTU21D;53211;45.040;38.788;2023-01-19T21:16:25;2.00;80.69
66401;HTU21D;53211;45.040;38.788;2023-01-19T21:18:52;2.01;80.81
66401;HTU21D;53211;45.040;38.788;2023-01-19T21:21:18;2.01;80.84
66401;HTU21D;53211;45.040;38.788;2023-01-19T21:23:44;2.01;80.73
66401;HTU21D;53211;45.040;38.788;2023-01-19T21:26:12;1.98;80.65
66401;HTU21D;53211;45.040;38.788;2023-01-19T21:28:38;1.96;80.62
66401;HTU21D;53211;45.040;38.788;2023-01-19T21:31:06;1.90;80.52
66401;HTU21D;53211;45.040;38.788;2023-01-19T21:33:33;1.83;80.51
66401;HTU21D;53211;45.040;38.788;2023-01-19T21:35:59;1.78;80.49
66401;HTU21D;53211;45.040;38.788;2023-01-19T21:38:26;1.71;80.41
66401;HTU21D;53211;45.040;38.788;2023-01-19T21:40:53;1.67;80.37
66401;HTU21D;53211;45.040;38.788;2023-01-19T21:43:20;1.64;80.44
66401;HTU21D;53211;45.040;38.788;2023-01-19T21:45:47;1.60;80.50
66401;HTU21D;53211;45.040;38.788;2023-01-19T21:48:13;1.55;80.66
66401;HTU21D;53211;45.040;38.788;2023-01-19T21:50:39;1.53;80.74
66401;HTU21D;53211;45.040;38.788;2023-01-19T21:53:06;1.52;80.69
66401;HTU21D;53211;45.040;38.788;2023-01-19T21:55:34;1.54;80.98
66401;HTU21D;53211;45.040;38.788;2023-01-19T21:58:00;1.65;81.38
66401;HTU21D;53211;45.040;38.788;2023-01-19T22:00:26;1.78;81.32
66401;HTU21D;53211;45.040;38.788;2023-01-19T22:02:57;1.84;81.04
66401;HTU21D;53211;45.040;38.788;2023-01-19T22:05:23;1.83;80.95
66401;HTU21D;53211;45.040;38.788;2023-01-19T22:07:50;1.83;80.76
66401;HTU21D;53211;45.040;38.788;2023-01-19T22:10:16;1.79;80.56
66401;HTU21D;53211;45.040;38.788;2023-01-19T22:12:42;1.70;80.47
66401;HTU21D;53211;45.040;38.788;2023-01-19T22:15:09;1.64;80.45
66401;HTU21D;53211;45.040;38.788;2023-01-19T22:17:35;1.56;80.45
66401;HTU21D;53211;45.040;38.788;2023-01-19T22:20:01;1.50;80.48
66401;HTU21D;53211;45.040;38.788;2023-01-19T22:22:27;1.40;80.51
66401;HTU21D;53211;45.040;38.788;2023-01-19T22:24:53;1.33;80.50
66401;HTU21D;53211;45.040;38.788;2023-01-19T22:27:19;1.27;80.52
66401;HTU21D;53211;45.040;38.788;2023-01-19T22:29:46;1.19;80.56
66401;HTU21D;53211;45.040;38.788;2023-01-19T22:32:12;1.10;80.60
66401;HTU21D;53211;45.040;38.788;2023-01-19T22:34:38;1.04;80.61
66401;HTU21D;53211;45.040;38.788;2023-01-19T22:37:04;0.98;80.67
66401;HTU21D;53211;45.040;38.788;2023-01-19T22:39:30;0.93;80.70
66401;HTU21D;53211;45.040;38.788;2023-01-19T22:41:57;0.89;80.84
66401;HTU21D;53211;45.040;38.788;2023-01-19T22:44:22;0.84;81.12
66401;HTU21D;53211;45.040;38.788;2023-01-19T22:46:49;0.82;80.96
66401;HTU21D;53211;45.040;38.788;2023-01-19T22:49:16;0.82;81.36
66401;HTU21D;53211;45.040;38.788;2023-01-19T22:51:43;0.89;81.49
66401;HTU21D;53211;45.040;38.788;2023-01-19T22:54:10;0.88;81.34
66401;HTU21D;53211;45.040;38.788;2023-01-19T22:56:37;0.86;81.40
66401;HTU21D;53211;45.040;38.788;2023-01-19T22:59:04;0.84;81.50
66401;HTU21D;53211;45.040;38.788;2023-01-19T23:01:35;0.86;81.52
66401;HTU21D;53211;45.040;38.788;2023-01-19T23:04:02;0.89;81.58
66401;HTU21D;53211;45.040;38.788;2023-01-19T23:06:31;0.94;81.72
66401;HTU21D;53211;45.040;38.788;2023-01-19T23:09:00;0.98;81.74
66401;HTU21D;53211;45.040;38.788;2023-01-19T23:11:29;1.05;81.71
66401;HTU21D;53211;45.040;38.788;2023-01-19T23:13:57;1.03;81.72
66401;HTU21D;53211;45.040;38.788;2023-01-19T23:16:23;1.04;81.52
66401;HTU21D;53211;45.040;38.788;2023-01-19T23:18:55;1.02;81.59
66401;HTU21D;53211;45.040;38.788;2023-01-19T23:21:23;0.97;81.50
66401;HTU21D;53211;45.040;38.788;2023-01-19T23:23:55;0.95;81.52
66401;HTU21D;53211;45.040;38.788;2023-01-19T23:26:22;0.92;81.59
66401;HTU21D;53211;45.040;38.788;2023-01-19T23:28:59;0.90;81.49
66401;HTU21D;53211;45.040;38.788;2023-01-19T23:31:31;0.87;81.49
66401;HTU21D;53211;45.040;38.788;2023-01-19T23:34:01;0.82;81.49
66401;HTU21D;53211;45.040;38.788;2023-01-19T23:36:30;0.78;81.39
66401;HTU21D;53211;45.040;38.788;2023-01-19T23:39:00;0.75;81.53
66401;HTU21D;53211;45.040;38.788;2023-01-19T23:41:28;0.73;81.48
66401;HTU21D;53211;45.040;38.788;2023-01-19T23:43:55;0.71;81.51
66401;HTU21D;53211;45.040;38.788;2023-01-19T23:46:21;0.68;81.49
66401;HTU21D;53211;45.040;38.788;2023-01-19T23:48:47;0.67;81.57
66401;HTU21D;53211;45.040;38.788;2023-01-19T23:51:15;0.67;81.64
66401;HTU21D;53211;45.040;38.788;2023-01-19T23:53:42;0.65;81.69
66401;HTU21D;53211;45.040;38.788;2023-01-19T23:56:10;0.63;81.68
66401;HTU21D;53211;45.040;38.788;2023-01-19T23:58:36;0.61;81.68
